Etusivu
METAR-TAF:

METAR-TAF

Lentoasemat :

Gardermoenin lentoasema

Oslo, Norja

Leveyspiiri: 60-12N, Pituuspiiri: 011-05E, korkeus merenpinnasta: 208 m

Tämänhetkinen sää

Tämä raportti tehtiin 30 minuuttia sitten, kello 06.20 UTC
Tuuli 5 kn lännestä, vaihdellen lounaan ja lännen/luoteen välillä
Lämpötila 3°C
Kosteus 81%
Ilmanpaine 1017 hPa
Näkyvyys 10 km tai enemmän
ei pilviä alle 1500 m:ssä eikä cumulonimbus-pilviä

METAR: ENGM 180620Z 26005KT 220V300 CAVOK 03/00 Q1017 NOSIG

Aika: 08:50 (06:50 UTC)

Sääennuste

Ennuste voimassa 18. päivästä klo 06 UTC - 19. päivään klo 06 UTC
Tuuli 8 kn lännestä
Näkyvyys 10 km tai enemmän
ei pilviä alle 1500 m:ssä eikä cumulonimbus-pilviä

TAF: ENGM 1806/1906 27008KT CAVOK

Säähavainnot ja -ennusteet yli 4000 lentoasemalta (METAR- ja TAF-raportit).

Käytössä olevat sääasemat on merkitty karttaan keltaisilla ja punaisilla pisteillä.

Aseta hiiri pisteen päälle nähdäksesi sääaseman nimen.

Klikkaa sitten nähdäksesi säähavainnot ja -ennusteet.

Kartan vaihtaminen: klikkaa mustalla rastilla varustettuja vihreitä pisteitä, niin voit zoomata sisään; viivalla varustettua vihreää pistettä, niin voit zoomata ulos tai vihreitä nuolia, niin pääset viereisille kartoille.


METAR-TAF: